createdAt,value
2017-06-11T00:00:41.395Z,5.87
2017-06-11T00:03:08.866Z,5.27
2017-06-11T00:05:37.121Z,4.70
2017-06-11T00:08:04.610Z,10.30
2017-06-11T00:10:32.143Z,5.93
2017-06-11T00:12:59.603Z,8.00
2017-06-11T00:15:27.159Z,5.33
2017-06-11T00:17:54.607Z,6.00
2017-06-11T00:20:22.064Z,4.90
2017-06-11T00:22:49.518Z,6.00
2017-06-11T00:25:16.987Z,5.43
2017-06-11T00:27:44.455Z,5.97
2017-06-11T00:30:12.719Z,7.00
2017-06-11T00:32:40.179Z,6.50
2017-06-11T00:35:07.727Z,6.93
2017-06-11T00:37:35.287Z,7.60
2017-06-11T00:40:02.749Z,7.23
2017-06-11T00:42:30.305Z,13.13
2017-06-11T00:44:57.767Z,6.73
2017-06-11T00:47:25.227Z,7.60
2017-06-11T00:49:53.479Z,8.43
2017-06-11T00:52:20.943Z,7.03
2017-06-11T00:54:48.402Z,6.70
2017-06-11T00:57:15.866Z,6.63
2017-06-11T00:59:43.326Z,7.83
2017-06-11T01:02:10.778Z,7.60
2017-06-11T01:04:38.235Z,7.80
2017-06-11T01:07:05.694Z,6.43
2017-06-11T01:09:33.242Z,7.60
2017-06-11T01:12:00.703Z,7.50
2017-06-11T01:14:28.163Z,7.43
2017-06-11T01:16:55.715Z,6.63
2017-06-11T01:19:23.171Z,7.43
2017-06-11T01:21:50.633Z,7.63
2017-06-11T01:24:18.187Z,8.10
2017-06-11T01:26:45.654Z,8.37
2017-06-11T01:29:13.879Z,8.70
2017-06-11T01:31:41.339Z,18.33
2017-06-11T01:34:08.808Z,11.03
2017-06-11T01:36:36.290Z,11.20
2017-06-11T01:39:03.751Z,7.90
2017-06-11T01:41:31.305Z,8.13
2017-06-11T01:43:58.758Z,11.00
2017-06-11T01:46:26.214Z,8.47
2017-06-11T01:48:53.790Z,9.77
2017-06-11T01:51:22.020Z,7.30
2017-06-11T01:53:49.484Z,9.00
2017-06-11T01:56:16.963Z,8.70
2017-06-11T01:58:44.427Z,9.03
2017-06-11T02:01:12.694Z,11.73
2017-06-11T02:03:40.250Z,8.23
2017-06-11T02:06:07.810Z,9.53
2017-06-11T02:08:35.267Z,9.27
2017-06-11T02:11:02.723Z,9.70
2017-06-11T02:13:30.176Z,9.40
2017-06-11T02:15:57.634Z,8.90
2017-06-11T02:18:25.096Z,9.70
2017-06-11T02:20:52.563Z,10.03
2017-06-11T02:23:20.799Z,10.07
2017-06-11T02:25:48.266Z,14.37
2017-06-11T02:28:15.739Z,11.50
2017-06-11T02:30:43.295Z,10.40
2017-06-11T02:33:10.759Z,10.70
2017-06-11T02:35:38.313Z,10.70
2017-06-11T02:38:05.774Z,11.30
2017-06-11T02:40:33.327Z,10.00
2017-06-11T02:43:00.786Z,12.80
2017-06-11T02:45:28.259Z,8.80
2017-06-11T02:47:56.514Z,9.87
2017-06-11T02:50:23.980Z,11.30
2017-06-11T02:52:51.536Z,11.13
2017-06-11T02:55:19.083Z,12.77
2017-06-11T02:57:46.546Z,11.23
2017-06-11T03:00:14.008Z,12.77
2017-06-11T03:02:41.466Z,20.13
2017-06-11T03:05:09.699Z,11.07
2017-06-11T03:07:37.190Z,9.37
2017-06-11T03:10:04.646Z,7.93
2017-06-11T03:12:32.100Z,9.07
2017-06-11T03:14:59.658Z,9.10
2017-06-11T03:17:27.128Z,9.03
2017-06-11T03:19:54.675Z,9.40
2017-06-11T03:22:22.238Z,8.60
2017-06-11T03:24:49.790Z,10.60
2017-06-11T03:27:17.251Z,8.43
2017-06-11T03:29:44.807Z,8.97
2017-06-11T03:32:12.363Z,8.90
2017-06-11T03:34:39.823Z,8.93
2017-06-11T03:37:07.379Z,8.97
2017-06-11T03:39:34.929Z,8.03
2017-06-11T03:42:02.399Z,9.50
2017-06-11T03:44:29.850Z,8.47
2017-06-11T03:46:57.306Z,9.37
2017-06-11T03:49:24.767Z,10.27
2017-06-11T03:51:52.319Z,9.93
2017-06-11T03:54:19.783Z,9.97
2017-06-11T03:56:47.343Z,12.30
2017-06-11T03:59:14.830Z,11.00
2017-06-11T04:01:42.291Z,12.33
2017-06-11T04:04:09.812Z,12.67
2017-06-11T04:06:37.363Z,11.27
2017-06-11T04:09:04.826Z,11.90
2017-06-11T04:11:32.283Z,11.13
2017-06-11T04:13:59.748Z,12.53
2017-06-11T04:16:28.016Z,11.83
2017-06-11T04:18:55.478Z,16.50
2017-06-11T04:21:23.027Z,10.10
2017-06-11T04:23:50.487Z,9.93
2017-06-11T04:26:17.951Z,7.53
2017-06-11T04:28:46.183Z,7.20
2017-06-11T07:32:35.711Z,4.70
2017-06-11T07:35:03.159Z,3.60
2017-06-11T07:37:30.611Z,3.33
2017-06-11T07:39:58.063Z,4.80
2017-06-11T07:42:25.566Z,5.20
2017-06-11T07:44:53.026Z,5.07
2017-06-11T07:47:20.492Z,3.23
2017-06-11T07:49:48.038Z,5.20
2017-06-11T07:52:15.498Z,3.17
2017-06-11T07:54:43.059Z,4.73
2017-06-11T07:57:10.517Z,3.50
2017-06-11T07:59:38.064Z,3.40
2017-06-11T08:02:05.623Z,3.23
2017-06-11T08:04:33.183Z,3.57
2017-06-11T08:07:00.742Z,2.90
2017-06-11T08:09:28.232Z,3.00
2017-06-11T08:11:56.579Z,7.93
2017-06-11T08:14:24.034Z,3.60
2017-06-11T08:16:52.125Z,2.97
2017-06-11T08:19:19.663Z,3.50
2017-06-11T08:21:47.124Z,4.20
2017-06-11T08:24:14.579Z,4.90
2017-06-11T08:26:42.035Z,3.50
2017-06-11T08:29:09.495Z,2.87
2017-06-11T08:31:36.947Z,3.97
2017-06-11T08:34:04.403Z,3.63
2017-06-11T08:36:31.862Z,2.77
2017-06-11T08:38:59.318Z,2.43
2017-06-11T08:41:26.791Z,3.70
2017-06-11T08:43:55.012Z,3.17
2017-06-11T08:46:22.506Z,3.07
2017-06-11T08:48:49.958Z,3.20
2017-06-11T08:53:52.114Z,3.60
2017-06-11T08:56:19.574Z,2.43
2017-06-11T08:58:47.035Z,2.30
2017-06-11T09:01:14.494Z,4.70
2017-06-11T09:03:41.966Z,2.77
2017-06-11T09:06:09.423Z,2.90
2017-06-11T09:08:36.879Z,3.30
2017-06-11T09:11:04.336Z,3.40
2017-06-11T09:13:31.794Z,2.33
2017-06-11T09:15:59.252Z,3.37
2017-06-11T09:18:26.721Z,2.50
2017-06-11T09:20:54.168Z,2.30
2017-06-11T09:23:21.625Z,2.47
2017-06-11T09:25:49.894Z,1.90
2017-06-11T09:28:17.367Z,4.07
2017-06-11T09:30:45.627Z,3.97
2017-06-11T09:33:13.083Z,3.07
2017-06-11T09:35:40.534Z,2.70
2017-06-11T09:38:07.992Z,2.53
2017-06-11T09:40:35.433Z,3.10
2017-06-11T09:43:02.894Z,2.13
2017-06-11T09:45:30.350Z,4.53
2017-06-11T09:47:57.806Z,4.47
2017-06-11T09:50:25.273Z,3.50
2017-06-11T09:52:52.723Z,3.37
2017-06-11T09:55:20.188Z,2.40
2017-06-11T09:57:47.656Z,2.10
2017-06-11T10:00:15.111Z,2.80
2017-06-11T10:02:42.659Z,2.03
2017-06-11T10:05:10.126Z,1.73
2017-06-11T10:07:37.598Z,2.40
2017-06-11T10:10:05.847Z,2.13
2017-06-11T10:12:33.303Z,2.23
2017-06-11T10:15:00.758Z,2.90
2017-06-11T10:17:28.224Z,3.43
2017-06-11T10:19:55.779Z,2.30
2017-06-11T10:22:23.233Z,1.80
2017-06-11T10:24:50.686Z,1.83
2017-06-11T10:27:18.145Z,2.40
2017-06-11T10:29:45.598Z,5.33
2017-06-11T10:32:13.058Z,1.80
2017-06-11T10:34:40.611Z,1.90
2017-06-11T10:37:08.172Z,3.57
2017-06-11T10:39:35.623Z,2.40
2017-06-11T10:42:03.180Z,2.40
2017-06-11T10:44:30.634Z,2.07
2017-06-11T10:46:58.099Z,2.33
2017-06-11T10:49:25.558Z,2.60
2017-06-11T10:51:53.022Z,3.20
2017-06-11T10:54:20.479Z,2.67
2017-06-11T10:56:47.950Z,2.17
2017-06-11T10:59:16.203Z,1.93
2017-06-11T11:01:43.662Z,1.70
2017-06-11T11:04:11.116Z,3.33
2017-06-11T11:06:38.662Z,2.10
2017-06-11T11:09:06.231Z,2.33
2017-06-11T11:11:33.690Z,3.80
2017-06-11T11:14:01.137Z,2.20
2017-06-11T11:16:28.586Z,1.63
2017-06-11T11:18:56.043Z,1.60
2017-06-11T11:21:23.498Z,2.30
2017-06-11T11:26:18.411Z,2.03
2017-06-11T11:28:45.977Z,5.13
2017-06-11T11:31:13.541Z,1.77
2017-06-11T11:33:40.999Z,2.30
2017-06-11T11:36:08.462Z,3.93
2017-06-11T11:38:35.914Z,1.73
2017-06-11T11:41:03.459Z,1.63
2017-06-11T11:43:30.918Z,2.50
2017-06-11T11:45:58.370Z,2.80
2017-06-11T11:48:25.944Z,2.00
2017-06-11T11:50:53.613Z,2.40
2017-06-11T11:53:21.879Z,4.03
2017-06-11T11:55:49.343Z,3.40
2017-06-11T11:58:16.793Z,2.17
2017-06-11T12:00:44.239Z,2.40
2017-06-11T12:03:11.692Z,4.30
2017-06-11T12:05:39.148Z,2.40
2017-06-11T12:08:06.600Z,5.03
2017-06-11T12:10:34.168Z,2.20
2017-06-11T12:13:01.626Z,1.70
2017-06-11T12:15:29.102Z,2.73
2017-06-11T12:17:57.322Z,2.27
2017-06-11T12:20:24.782Z,2.53
2017-06-11T12:22:52.235Z,3.00
2017-06-11T12:25:19.730Z,3.27
2017-06-11T12:27:47.189Z,1.53
2017-06-11T12:30:14.647Z,1.50
2017-06-11T12:32:42.099Z,1.70
2017-06-11T12:35:09.559Z,1.63
2017-06-11T12:37:37.119Z,1.80
2017-06-11T12:40:04.579Z,2.40
2017-06-11T12:42:32.043Z,2.23
2017-06-11T12:45:00.303Z,1.80
2017-06-11T12:47:27.783Z,1.40
2017-06-11T12:49:56.010Z,1.60
2017-06-11T12:52:23.471Z,1.77
2017-06-11T12:54:50.945Z,3.67
2017-06-11T12:57:18.403Z,1.60
2017-06-11T12:59:45.858Z,3.30
2017-06-11T13:02:13.306Z,2.20
2017-06-11T13:04:40.874Z,1.73
2017-06-11T13:07:08.335Z,1.47
2017-06-11T13:09:35.778Z,1.70
2017-06-11T13:12:03.234Z,3.90
2017-06-11T13:14:30.802Z,1.60
2017-06-11T13:16:58.256Z,1.70
2017-06-11T13:19:25.723Z,2.50
2017-06-11T13:21:53.172Z,2.03
2017-06-11T13:24:20.732Z,2.23
2017-06-11T13:26:48.184Z,1.67
2017-06-11T13:29:15.638Z,1.60
2017-06-11T13:31:43.097Z,1.80
2017-06-11T13:34:10.547Z,4.70
2017-06-11T13:36:38.115Z,1.90
2017-06-11T13:39:05.570Z,1.83
2017-06-11T13:41:33.023Z,1.53
2017-06-11T13:44:00.479Z,2.33
2017-06-11T13:46:27.948Z,1.83
2017-06-11T13:48:55.497Z,1.73
2017-06-11T13:51:22.967Z,1.67
2017-06-11T13:53:50.418Z,2.30
2017-06-11T13:56:18.642Z,2.90
2017-06-11T13:58:46.098Z,4.30
2017-06-11T14:01:13.595Z,2.57
2017-06-11T14:03:41.050Z,2.07
2017-06-11T14:06:08.506Z,1.90
2017-06-11T14:08:35.971Z,6.60
2017-06-11T14:11:03.436Z,1.70
2017-06-11T14:13:31.663Z,2.33
2017-06-11T14:15:59.115Z,1.70
2017-06-11T14:18:26.610Z,2.93
2017-06-11T14:20:54.067Z,1.87
2017-06-11T14:23:21.546Z,1.80
2017-06-11T14:25:49.762Z,1.83
2017-06-11T14:28:17.219Z,1.43
2017-06-11T14:30:44.674Z,2.07
2017-06-11T14:33:12.170Z,1.63
2017-06-11T14:35:39.622Z,1.80
2017-06-11T14:38:07.087Z,1.80
2017-06-11T14:40:34.639Z,1.90
2017-06-11T14:43:02.187Z,2.17
2017-06-11T14:45:29.643Z,5.00
2017-06-11T14:47:57.094Z,1.90
2017-06-11T14:50:24.567Z,1.67
2017-06-11T14:52:52.026Z,1.80
2017-06-11T14:55:19.506Z,2.10
2017-06-11T14:57:47.755Z,1.90
2017-06-11T15:00:15.208Z,2.13
2017-06-11T15:02:42.669Z,2.50
2017-06-11T15:05:10.118Z,1.70
2017-06-11T15:07:37.579Z,2.33
2017-06-11T15:10:05.039Z,2.90
2017-06-11T15:12:32.495Z,1.70
2017-06-11T15:14:59.957Z,1.47
2017-06-11T15:17:27.507Z,1.70
2017-06-11T15:19:54.962Z,1.83
2017-06-11T15:22:22.519Z,1.80
2017-06-11T15:24:49.973Z,1.60
2017-06-11T15:27:17.433Z,2.50
2017-06-11T15:29:44.887Z,1.73
2017-06-11T15:32:13.196Z,1.90
2017-06-11T15:34:40.723Z,1.50
2017-06-11T15:37:08.180Z,1.80
2017-06-11T15:39:35.635Z,3.23
2017-06-11T15:42:03.082Z,3.03
2017-06-11T15:44:30.530Z,2.10
2017-06-11T15:46:57.987Z,1.60
2017-06-11T15:49:25.458Z,2.10
2017-06-11T15:51:52.918Z,3.93
2017-06-11T15:54:20.398Z,1.53
2017-06-11T15:56:47.850Z,1.83
2017-06-11T15:59:16.111Z,1.90
2017-06-11T16:01:43.559Z,1.60
2017-06-11T16:04:11.122Z,2.10
2017-06-11T16:06:38.574Z,1.57
2017-06-11T16:09:06.028Z,1.90
2017-06-11T16:11:33.478Z,2.70
2017-06-11T16:14:00.934Z,1.70
2017-06-11T16:16:28.562Z,2.40
2017-06-11T16:18:56.006Z,1.83
2017-06-11T16:21:23.462Z,2.07
2017-06-11T16:23:50.946Z,2.10
2017-06-11T16:26:18.429Z,3.23
2017-06-11T16:28:45.892Z,1.97
2017-06-11T16:31:13.376Z,1.60
2017-06-11T16:33:41.595Z,3.10
2017-06-11T16:36:09.075Z,1.90
2017-06-11T16:38:36.492Z,2.90
2017-06-11T16:41:04.158Z,2.83
2017-06-11T16:43:31.646Z,2.17
2017-06-11T16:45:59.202Z,2.17
2017-06-11T16:48:26.662Z,2.33
2017-06-11T16:50:54.119Z,2.17
2017-06-11T16:53:21.616Z,2.03
2017-06-11T16:55:49.192Z,11.20
2017-06-11T16:58:17.214Z,1.50
2017-06-11T17:00:44.667Z,3.93
2017-06-11T17:03:12.123Z,2.33
2017-06-11T17:05:39.779Z,2.27
2017-06-11T17:08:07.235Z,4.07
2017-06-11T17:10:34.678Z,1.87
2017-06-11T17:13:02.126Z,2.30
2017-06-11T17:15:29.811Z,1.93
2017-06-11T17:17:57.832Z,2.73
2017-06-11T17:20:25.330Z,2.47
2017-06-11T17:22:52.787Z,5.20
2017-06-11T17:25:20.254Z,3.93
2017-06-11T17:27:47.711Z,2.30
2017-06-11T17:30:15.262Z,1.90
2017-06-11T17:32:42.818Z,2.30
2017-06-11T17:35:10.283Z,2.03
2017-06-11T17:37:37.730Z,2.40
2017-06-11T17:40:05.198Z,2.47
2017-06-11T17:42:33.424Z,1.90
2017-06-11T17:45:00.878Z,2.23
2017-06-11T17:47:28.334Z,3.83
2017-06-11T17:49:55.790Z,3.07
2017-06-11T17:52:23.255Z,4.80
2017-06-11T17:54:50.714Z,2.57
2017-06-11T17:57:18.166Z,4.80
2017-06-11T17:59:46.885Z,5.77
2017-06-11T18:02:19.438Z,2.03
2017-06-11T18:04:49.832Z,3.87
2017-06-11T18:07:18.042Z,2.30
2017-06-11T18:09:46.326Z,2.23
2017-06-11T18:12:13.785Z,2.70
2017-06-11T18:14:41.235Z,4.30
2017-06-11T18:17:08.700Z,3.33
2017-06-11T18:19:36.159Z,1.93
2017-06-11T18:22:03.610Z,2.30
2017-06-11T18:24:31.077Z,4.80
2017-06-11T18:26:58.629Z,2.80
2017-06-11T18:29:26.182Z,2.23
2017-06-11T18:31:53.634Z,4.30
2017-06-11T18:34:21.203Z,2.53
2017-06-11T18:36:48.654Z,3.23
2017-06-11T18:39:16.114Z,2.60
2017-06-11T18:41:43.569Z,2.43
2017-06-11T18:44:11.026Z,3.00
2017-06-11T18:46:38.478Z,4.83
2017-06-11T18:49:05.934Z,3.70
2017-06-11T18:51:33.391Z,4.20
2017-06-11T18:54:00.872Z,7.53
2017-06-11T18:56:29.091Z,3.80
2017-06-11T18:58:56.891Z,3.40
2017-06-11T19:01:24.354Z,2.80
2017-06-11T19:03:51.904Z,3.70
2017-06-11T19:06:19.362Z,3.23
2017-06-11T19:08:46.814Z,2.50
2017-06-11T19:11:14.274Z,3.10
2017-06-11T19:13:41.830Z,2.20
2017-06-11T19:16:09.291Z,3.73
2017-06-11T19:18:36.847Z,3.33
2017-06-11T19:21:04.303Z,7.20
2017-06-11T19:23:31.760Z,2.90
2017-06-11T19:25:59.210Z,2.60
2017-06-11T19:28:26.664Z,2.53
2017-06-11T19:30:54.131Z,3.77
2017-06-11T19:33:21.582Z,3.13
2017-06-11T19:35:49.071Z,3.97
2017-06-11T19:38:17.298Z,3.50
2017-06-11T19:40:44.776Z,3.63
2017-06-11T19:43:12.330Z,3.30
2017-06-11T19:45:39.782Z,3.17
2017-06-11T19:48:07.338Z,4.43
2017-06-11T19:50:34.906Z,3.27
2017-06-11T19:53:02.363Z,3.00
2017-06-11T19:55:29.811Z,3.60
2017-06-11T19:57:57.376Z,3.57
2017-06-11T20:00:24.834Z,3.20
2017-06-11T20:02:52.302Z,3.90
2017-06-11T20:05:19.756Z,3.80
2017-06-11T20:07:47.297Z,3.57
2017-06-11T20:10:14.751Z,3.10
2017-06-11T20:12:42.310Z,3.93
2017-06-11T20:15:09.775Z,3.70
2017-06-11T20:17:37.232Z,3.27
2017-06-11T20:20:04.679Z,4.17
2017-06-11T20:22:32.263Z,3.67
2017-06-11T20:25:00.482Z,2.67
2017-06-11T20:27:27.938Z,4.93
2017-06-11T20:29:55.398Z,3.43
2017-06-11T20:32:22.854Z,4.60
2017-06-11T20:34:50.338Z,3.73
2017-06-11T20:37:17.785Z,4.27
2017-06-11T20:39:45.254Z,3.17
2017-06-11T20:42:12.704Z,4.10
2017-06-11T20:44:40.155Z,3.80
2017-06-11T20:47:07.604Z,3.97
2017-06-11T20:49:35.086Z,5.63
2017-06-11T20:52:02.553Z,4.93
2017-06-11T20:54:30.030Z,4.63
2017-06-11T20:56:58.246Z,4.40
2017-06-11T20:59:25.696Z,4.10
2017-06-11T21:01:53.155Z,4.40
2017-06-11T21:04:20.607Z,3.57
2017-06-11T21:06:48.078Z,4.53
2017-06-11T21:09:15.540Z,4.27
2017-06-11T21:11:42.994Z,4.00
2017-06-11T21:14:10.453Z,4.93
2017-06-11T21:16:37.903Z,4.30
2017-06-11T21:19:05.363Z,4.63
2017-06-11T21:21:32.832Z,4.43
2017-06-11T21:24:00.282Z,4.80
2017-06-11T21:26:27.738Z,3.87
2017-06-11T21:28:55.198Z,4.40
2017-06-11T21:31:22.660Z,4.33
2017-06-11T21:33:50.118Z,5.70
2017-06-11T21:36:17.571Z,4.10
2017-06-11T21:38:45.029Z,4.20
2017-06-11T21:41:12.486Z,5.10
2017-06-11T21:43:39.943Z,5.70
2017-06-11T21:46:07.394Z,4.90
2017-06-11T21:48:34.863Z,5.40
2017-06-11T21:51:02.322Z,4.77
2017-06-11T21:53:30.543Z,3.87
2017-06-11T21:55:58.010Z,4.70
2017-06-11T21:58:25.461Z,3.77
2017-06-11T22:02:36.510Z,6.20
2017-06-11T22:05:04.739Z,4.27
2017-06-11T22:07:32.214Z,5.10
2017-06-11T22:09:59.687Z,4.20
2017-06-11T22:12:27.942Z,4.47
2017-06-11T22:14:55.400Z,6.30
2017-06-11T22:17:22.859Z,6.10
2017-06-11T22:19:50.305Z,4.53
2017-06-11T22:22:17.760Z,5.90
2017-06-11T22:24:45.214Z,5.03
2017-06-11T22:27:12.667Z,4.67
2017-06-11T22:29:40.134Z,3.97
2017-06-11T22:32:07.702Z,4.83
2017-06-11T22:34:35.154Z,3.83
2017-06-11T22:37:02.619Z,3.87
2017-06-11T22:39:30.167Z,5.73
2017-06-11T22:41:57.627Z,4.50
2017-06-11T22:44:25.181Z,3.90
2017-06-11T22:46:52.645Z,3.77
2017-06-11T22:49:20.198Z,3.20
2017-06-11T22:51:47.667Z,3.90
2017-06-11T22:54:15.212Z,4.43
2017-06-11T22:56:42.667Z,4.27
2017-06-11T22:59:10.127Z,3.20
2017-06-11T23:01:37.575Z,4.03
2017-06-11T23:04:05.028Z,3.23
2017-06-11T23:06:32.482Z,4.37
2017-06-11T23:08:59.955Z,3.80
2017-06-11T23:11:27.406Z,3.80
2017-06-11T23:13:54.867Z,5.87
2017-06-11T23:16:22.323Z,5.63
2017-06-11T23:18:49.779Z,3.77
2017-06-11T23:21:17.234Z,3.80
2017-06-11T23:23:44.787Z,4.27
2017-06-11T23:26:12.355Z,4.03
2017-06-11T23:28:39.830Z,4.40
2017-06-11T23:31:08.050Z,5.30
2017-06-11T23:33:35.538Z,5.30
2017-06-11T23:36:02.999Z,4.67
2017-06-11T23:38:30.454Z,4.53
2017-06-11T23:40:58.006Z,4.10
2017-06-11T23:43:25.475Z,4.20
2017-06-11T23:45:53.738Z,5.00
2017-06-11T23:48:21.194Z,3.80
2017-06-11T23:50:48.646Z,3.80
2017-06-11T23:53:16.105Z,5.03
2017-06-11T23:55:43.563Z,4.70
2017-06-11T23:58:11.022Z,13.40
